createdAt,value
2022-10-02T00:00:23.990Z,0
2022-10-02T00:01:24.607Z,0
2022-10-02T00:02:25.228Z,0
2022-10-02T00:03:25.820Z,0
2022-10-02T00:04:26.473Z,0
2022-10-02T00:05:27.070Z,0
2022-10-02T00:06:27.660Z,0
2022-10-02T00:07:28.253Z,0
2022-10-02T00:08:28.844Z,0
2022-10-02T00:09:29.448Z,0
2022-10-02T00:10:30.034Z,0
2022-10-02T00:11:30.638Z,0
2022-10-02T00:12:31.235Z,0
2022-10-02T00:13:31.834Z,0
2022-10-02T00:14:32.429Z,0
2022-10-02T00:15:33.029Z,0
2022-10-02T00:16:34.087Z,0
2022-10-02T00:17:35.062Z,0
2022-10-02T00:18:35.660Z,0
2022-10-02T00:19:36.321Z,0
2022-10-02T00:20:36.918Z,0
2022-10-02T00:21:37.516Z,0
2022-10-02T00:22:38.113Z,0
2022-10-02T00:23:38.697Z,0
2022-10-02T00:24:39.338Z,0
2022-10-02T00:25:39.928Z,0
2022-10-02T00:26:40.519Z,0
2022-10-02T00:27:41.109Z,0
2022-10-02T00:28:41.702Z,0
2022-10-02T00:29:42.292Z,0
2022-10-02T00:30:42.883Z,0
2022-10-02T00:31:43.500Z,0
2022-10-02T00:32:44.088Z,0
2022-10-02T00:33:44.678Z,0
2022-10-02T00:34:45.270Z,0
2022-10-02T00:35:45.872Z,0
2022-10-02T00:36:46.473Z,0
2022-10-02T00:37:47.136Z,0
2022-10-02T00:38:47.874Z,0
2022-10-02T00:39:48.477Z,0
2022-10-02T00:40:49.925Z,0
2022-10-02T00:41:50.523Z,0
2022-10-02T00:42:51.121Z,0
2022-10-02T00:43:51.716Z,0
2022-10-02T00:44:52.367Z,0
2022-10-02T00:45:52.996Z,0
2022-10-02T00:46:53.604Z,0
2022-10-02T00:47:54.200Z,0
2022-10-02T00:48:54.849Z,0
2022-10-02T00:49:55.444Z,0
2022-10-02T00:50:56.092Z,0
2022-10-02T00:51:56.691Z,0
2022-10-02T00:52:57.275Z,0
2022-10-02T00:53:57.868Z,0
2022-10-02T00:54:58.458Z,0
2022-10-02T00:55:59.049Z,0
2022-10-02T00:56:59.642Z,0
2022-10-02T00:58:00.237Z,0
2022-10-02T00:59:00.823Z,0
2022-10-02T01:00:01.429Z,0
2022-10-02T01:01:02.890Z,0
2022-10-02T01:02:03.513Z,0
2022-10-02T01:03:04.077Z,0
2022-10-02T01:04:04.678Z,0
2022-10-02T01:05:05.261Z,0
2022-10-02T01:06:05.865Z,0
2022-10-02T01:07:06.464Z,0
2022-10-02T01:08:07.052Z,0
2022-10-02T01:09:07.642Z,0
2022-10-02T01:10:08.233Z,0
2022-10-02T01:11:08.823Z,0
2022-10-02T01:12:09.429Z,0
2022-10-02T01:13:10.026Z,0
2022-10-02T01:14:10.624Z,0
2022-10-02T01:15:11.220Z,0
2022-10-02T01:16:11.863Z,0
2022-10-02T01:17:12.451Z,0
2022-10-02T01:18:13.049Z,0
2022-10-02T01:19:13.648Z,0
2022-10-02T01:20:14.233Z,0
2022-10-02T01:21:14.824Z,0
2022-10-02T01:22:15.427Z,0
2022-10-02T01:23:16.015Z,0
2022-10-02T01:24:16.622Z,0
2022-10-02T01:25:17.279Z,0
2022-10-02T01:26:17.877Z,0
2022-10-02T01:27:18.476Z,0
2022-10-02T01:28:19.145Z,0
2022-10-02T01:29:19.732Z,0
2022-10-02T01:30:20.332Z,0
2022-10-02T01:31:20.947Z,0
2022-10-02T01:32:21.559Z,0
2022-10-02T01:33:22.153Z,0
2022-10-02T01:34:22.792Z,0
2022-10-02T01:35:23.382Z,0
2022-10-02T01:36:23.975Z,0
2022-10-02T01:37:25.368Z,0
2022-10-02T01:38:25.959Z,0
2022-10-02T01:39:26.551Z,0
2022-10-02T01:40:27.989Z,0
2022-10-02T01:41:28.581Z,0
2022-10-02T01:42:29.187Z,0
2022-10-02T01:43:29.911Z,0
2022-10-02T01:44:30.516Z,0
2022-10-02T01:45:31.154Z,0
2022-10-02T01:46:31.760Z,0
2022-10-02T01:47:32.351Z,0
2022-10-02T01:48:33.000Z,0
2022-10-02T01:49:33.600Z,0
2022-10-02T01:50:34.197Z,0
2022-10-02T01:51:34.948Z,0
2022-10-02T01:52:35.607Z,0
2022-10-02T01:53:36.257Z,0
2022-10-02T01:54:36.853Z,0
2022-10-02T01:55:37.454Z,0
2022-10-02T01:56:38.587Z,0
2022-10-02T01:57:39.405Z,0
2022-10-02T01:58:40.001Z,0
2022-10-02T01:59:40.601Z,0
2022-10-02T02:00:41.235Z,0
2022-10-02T02:01:41.792Z,0
2022-10-02T02:02:43.183Z,0
2022-10-02T02:03:43.776Z,0
2022-10-02T02:04:44.377Z,0
2022-10-02T02:05:44.963Z,0
2022-10-02T02:06:45.565Z,0
2022-10-02T02:07:46.165Z,0
2022-10-02T02:08:46.749Z,0
2022-10-02T02:09:47.341Z,0
2022-10-02T02:10:47.934Z,0
2022-10-02T02:11:48.523Z,0
2022-10-02T02:12:49.114Z,0
2022-10-02T02:13:49.706Z,0
2022-10-02T02:14:50.303Z,0
2022-10-02T02:15:50.890Z,0
2022-10-02T02:16:51.526Z,0
2022-10-02T02:17:52.141Z,0
2022-10-02T02:18:52.736Z,0
2022-10-02T02:19:53.334Z,0
2022-10-02T02:20:53.921Z,0
2022-10-02T02:21:54.512Z,0
2022-10-02T02:22:55.110Z,0
2022-10-02T02:23:55.695Z,0
2022-10-02T02:24:56.299Z,0
2022-10-02T02:25:56.896Z,0
2022-10-02T02:26:57.494Z,0
2022-10-02T02:27:58.130Z,0
2022-10-02T02:28:58.715Z,0
2022-10-02T02:29:59.315Z,0
2022-10-02T02:30:59.913Z,0
2022-10-02T02:32:00.541Z,0
2022-10-02T02:33:01.137Z,0
2022-10-02T02:34:01.734Z,0
2022-10-02T02:35:02.344Z,0
2022-10-02T02:36:02.931Z,0
2022-10-02T02:37:03.529Z,0
2022-10-02T02:38:04.161Z,0
2022-10-02T02:39:04.751Z,0
2022-10-02T02:40:05.340Z,0
2022-10-02T02:41:05.950Z,0
2022-10-02T02:42:06.565Z,0
2022-10-02T02:43:07.161Z,0
2022-10-02T02:44:07.759Z,0
2022-10-02T02:45:08.361Z,0
2022-10-02T02:46:09.022Z,0
2022-10-02T02:47:09.650Z,0
2022-10-02T02:48:10.313Z,0
2022-10-02T02:49:10.876Z,0
2022-10-02T02:50:11.466Z,0
2022-10-02T02:51:12.061Z,0
2022-10-02T02:52:12.646Z,0
2022-10-02T02:53:13.310Z,0
2022-10-02T02:54:14.057Z,0
2022-10-02T02:55:14.702Z,0
2022-10-02T02:56:15.339Z,0
2022-10-02T02:57:15.927Z,0
2022-10-02T02:58:16.518Z,0
2022-10-02T02:59:17.115Z,0
2022-10-02T03:00:17.848Z,0
2022-10-02T03:01:18.520Z,0
2022-10-02T03:02:19.967Z,0
2022-10-02T03:03:20.545Z,0
2022-10-02T03:04:21.135Z,0
2022-10-02T03:05:21.726Z,0
2022-10-02T03:06:22.317Z,0
2022-10-02T03:07:22.920Z,0
2022-10-02T03:08:23.502Z,0
2022-10-02T03:09:24.107Z,0
2022-10-02T03:10:24.704Z,0
2022-10-02T03:11:25.301Z,0
2022-10-02T03:12:25.899Z,0
2022-10-02T03:13:26.497Z,0
2022-10-02T03:14:27.092Z,0
2022-10-02T03:15:27.690Z,0
2022-10-02T03:16:28.291Z,0
2022-10-02T03:17:28.888Z,0
2022-10-02T03:18:29.489Z,0
2022-10-02T03:19:30.148Z,0
2022-10-02T03:20:30.748Z,0
2022-10-02T03:21:31.348Z,0
2022-10-02T03:22:31.933Z,0
2022-10-02T03:23:32.540Z,0
2022-10-02T03:24:33.135Z,0
2022-10-02T03:25:33.717Z,0
2022-10-02T03:26:34.700Z,0
2022-10-02T03:27:35.376Z,0
2022-10-02T03:28:54.829Z,0
2022-10-02T03:29:37.550Z,0
2022-10-02T03:30:38.151Z,0
2022-10-02T03:31:38.762Z,0
2022-10-02T03:32:39.342Z,0
2022-10-02T03:33:39.934Z,0
2022-10-02T03:34:40.526Z,0
2022-10-02T03:35:41.116Z,0
2022-10-02T03:36:41.707Z,0
2022-10-02T03:37:42.310Z,0
2022-10-02T03:38:42.912Z,0
2022-10-02T03:39:43.504Z,0
2022-10-02T03:40:44.103Z,0
2022-10-02T03:41:44.698Z,0
2022-10-02T03:42:45.295Z,0
2022-10-02T03:43:45.894Z,0
2022-10-02T03:44:46.496Z,0
2022-10-02T03:45:51.401Z,0
2022-10-02T03:46:48.753Z,0
2022-10-02T03:47:49.331Z,0
2022-10-02T03:48:49.922Z,0
2022-10-02T03:49:50.525Z,0
2022-10-02T03:50:51.975Z,0
2022-10-02T03:51:52.570Z,0
2022-10-02T03:52:53.167Z,0
2022-10-02T03:53:53.751Z,0
2022-10-02T03:54:54.393Z,0
2022-10-02T03:55:54.983Z,0
2022-10-02T03:56:55.676Z,0
2022-10-02T03:57:56.261Z,0
2022-10-02T03:58:57.001Z,0
2022-10-02T03:59:57.591Z,0
2022-10-02T04:00:58.182Z,0
2022-10-02T04:01:59.653Z,0
2022-10-02T04:03:00.237Z,0
2022-10-02T04:04:00.940Z,0
2022-10-02T04:05:01.570Z,0
2022-10-02T04:06:02.156Z,0
2022-10-02T04:07:02.726Z,0
2022-10-02T04:08:03.369Z,0
2022-10-02T04:09:03.959Z,0
2022-10-02T04:10:04.560Z,0
2022-10-02T04:11:05.161Z,0
2022-10-02T04:12:05.758Z,0
2022-10-02T04:13:06.355Z,0
2022-10-02T04:14:06.951Z,0
2022-10-02T04:15:07.612Z,0
2022-10-02T04:16:08.250Z,0
2022-10-02T04:17:08.854Z,0
2022-10-02T04:18:09.451Z,0
2022-10-02T04:19:10.046Z,0
2022-10-02T04:20:10.647Z,0
2022-10-02T04:21:11.308Z,0
2022-10-02T04:22:11.890Z,0
2022-10-02T04:23:12.481Z,0
2022-10-02T04:24:13.086Z,0
2022-10-02T04:25:13.669Z,0
2022-10-02T04:26:14.259Z,0
2022-10-02T04:27:14.907Z,0
2022-10-02T04:28:15.528Z,0
2022-10-02T04:29:16.121Z,0
2022-10-02T04:30:16.717Z,0
2022-10-02T04:31:17.408Z,0
2022-10-02T04:32:17.998Z,0
2022-10-02T04:33:18.590Z,0
2022-10-02T04:34:19.228Z,0
2022-10-02T04:35:19.824Z,0
2022-10-02T04:36:20.412Z,0
2022-10-02T04:37:21.005Z,0
2022-10-02T04:38:21.607Z,0
2022-10-02T04:39:22.255Z,0
2022-10-02T04:40:22.858Z,0
2022-10-02T04:41:23.457Z,0
2022-10-02T04:42:24.079Z,0
2022-10-02T04:43:24.691Z,0
2022-10-02T04:44:25.282Z,0
2022-10-02T04:45:25.917Z,0
2022-10-02T04:46:26.563Z,0
2022-10-02T04:47:27.162Z,0
2022-10-02T04:48:27.761Z,0
2022-10-02T04:49:28.359Z,0
2022-10-02T04:50:28.956Z,0
2022-10-02T04:51:29.551Z,0
2022-10-02T04:52:30.148Z,0
2022-10-02T04:53:30.750Z,0
2022-10-02T04:54:31.392Z,0
2022-10-02T04:55:31.990Z,0
2022-10-02T04:56:32.587Z,0
2022-10-02T04:57:33.185Z,0
2022-10-02T04:58:33.770Z,0
2022-10-02T04:59:34.523Z,0
2022-10-02T05:00:35.181Z,0
2022-10-02T05:01:35.806Z,0
2022-10-02T05:02:36.379Z,0
2022-10-02T05:03:36.968Z,0
2022-10-02T05:04:37.559Z,0
2022-10-02T05:05:38.199Z,0
2022-10-02T05:06:39.107Z,0
2022-10-02T05:07:39.810Z,0
2022-10-02T05:08:40.403Z,0
2022-10-02T05:09:40.992Z,0
2022-10-02T05:10:41.586Z,0
2022-10-02T05:11:42.169Z,0
2022-10-02T05:12:43.613Z,0
2022-10-02T05:13:44.202Z,0
2022-10-02T05:14:44.805Z,0
2022-10-02T05:15:45.484Z,0
2022-10-02T05:16:46.125Z,0
2022-10-02T05:17:46.742Z,0
2022-10-02T05:18:47.327Z,0
2022-10-02T05:19:47.930Z,0
2022-10-02T05:20:48.513Z,0
2022-10-02T05:21:49.103Z,0
2022-10-02T05:22:49.710Z,0
2022-10-02T05:23:50.307Z,0
2022-10-02T05:24:50.905Z,0
2022-10-02T05:25:51.500Z,0
2022-10-02T05:26:52.098Z,0
2022-10-02T05:27:52.738Z,0
2022-10-02T05:28:53.326Z,0
2022-10-02T05:29:53.922Z,0
2022-10-02T05:30:54.605Z,0
2022-10-02T05:31:55.295Z,0
2022-10-02T05:32:55.937Z,0
2022-10-02T05:33:56.579Z,0
2022-10-02T05:34:57.183Z,0
2022-10-02T05:35:57.778Z,0
2022-10-02T05:36:58.362Z,0
2022-10-02T05:37:58.964Z,0
2022-10-02T05:38:59.549Z,0
2022-10-02T05:40:00.141Z,0
2022-10-02T05:41:00.729Z,0
2022-10-02T05:42:01.380Z,0
2022-10-02T05:43:02.033Z,0
2022-10-02T05:44:02.624Z,0
2022-10-02T05:45:03.217Z,0
2022-10-02T05:46:03.802Z,0
2022-10-02T05:47:04.452Z,0
2022-10-02T05:48:05.039Z,0
2022-10-02T05:49:05.637Z,0
2022-10-02T05:50:06.235Z,0
2022-10-02T05:51:06.946Z,0
2022-10-02T05:52:07.544Z,0
2022-10-02T05:53:08.141Z,0
2022-10-02T05:54:08.736Z,0
2022-10-02T05:55:09.384Z,0
2022-10-02T05:56:09.981Z,0
2022-10-02T05:57:10.580Z,0
2022-10-02T05:58:11.177Z,0
2022-10-02T05:59:11.757Z,0
2022-10-02T06:00:12.355Z,0
2022-10-02T06:01:13.032Z,0
2022-10-02T06:02:13.676Z,0
2022-10-02T06:03:14.256Z,0
2022-10-02T06:04:14.858Z,0
2022-10-02T06:05:15.438Z,0
2022-10-02T06:06:16.029Z,0
2022-10-02T06:07:16.618Z,0
2022-10-02T06:08:17.208Z,0
2022-10-02T06:09:20.093Z,0
2022-10-02T06:10:18.444Z,0
2022-10-02T06:11:19.033Z,0
2022-10-02T06:12:19.621Z,0
2022-10-02T06:13:20.212Z,0
2022-10-02T06:14:20.803Z,0
2022-10-02T06:15:21.392Z,0
2022-10-02T06:16:22.058Z,0
2022-10-02T06:17:22.655Z,0
2022-10-02T06:18:23.251Z,0
2022-10-02T06:19:23.853Z,0
2022-10-02T06:20:24.448Z,0
2022-10-02T06:21:25.048Z,0
2022-10-02T06:22:25.645Z,0
2022-10-02T06:23:26.287Z,0
2022-10-02T06:24:26.897Z,0
2022-10-02T06:25:27.492Z,0
2022-10-02T06:26:28.088Z,0
2022-10-02T06:27:28.672Z,0
2022-10-02T06:28:29.295Z,0
2022-10-02T06:29:29.909Z,0
2022-10-02T06:30:30.499Z,0
2022-10-02T06:31:31.966Z,0
2022-10-02T06:32:32.579Z,0
2022-10-02T06:33:34.028Z,0
2022-10-02T06:34:34.676Z,0
2022-10-02T06:35:35.258Z,0
2022-10-02T06:36:36.143Z,0
2022-10-02T06:37:36.941Z,0
2022-10-02T06:38:37.531Z,0
2022-10-02T06:39:38.122Z,0
2022-10-02T06:40:38.711Z,0
2022-10-02T06:41:39.303Z,0
2022-10-02T06:42:39.891Z,0
2022-10-02T06:43:40.569Z,0
2022-10-02T06:44:41.175Z,0
2022-10-02T06:45:41.780Z,0
2022-10-02T06:46:42.361Z,0
2022-10-02T06:47:42.946Z,0
2022-10-02T06:48:43.534Z,0
2022-10-02T06:49:44.128Z,0
2022-10-02T06:50:44.715Z,0
2022-10-02T06:51:45.305Z,0
2022-10-02T06:52:45.896Z,0
2022-10-02T06:53:46.487Z,0
2022-10-02T06:54:47.077Z,0
2022-10-02T06:55:47.717Z,0
2022-10-02T06:56:48.308Z,0
2022-10-02T06:57:48.899Z,0
2022-10-02T06:58:49.487Z,0
2022-10-02T06:59:50.130Z,0
2022-10-02T07:00:50.785Z,0
2022-10-02T07:01:56.429Z,0
2022-10-02T07:02:52.989Z,0
2022-10-02T07:03:53.571Z,0
2022-10-02T07:04:54.161Z,0
2022-10-02T07:05:54.752Z,0
2022-10-02T07:06:55.340Z,0
2022-10-02T07:07:55.943Z,0
2022-10-02T07:08:56.542Z,0
2022-10-02T07:09:57.139Z,0
2022-10-02T07:10:57.800Z,0
2022-10-02T07:11:58.395Z,0
2022-10-02T07:12:58.992Z,0
2022-10-02T07:13:59.591Z,0
2022-10-02T07:15:00.989Z,0
2022-10-02T07:16:01.664Z,0
2022-10-02T07:17:02.309Z,0
2022-10-02T07:18:02.895Z,0
2022-10-02T07:19:03.499Z,0
2022-10-02T07:20:04.094Z,0
2022-10-02T07:21:04.689Z,0
2022-10-02T07:22:15.297Z,0
2022-10-02T07:23:07.836Z,0
2022-10-02T07:24:08.459Z,0
2022-10-02T07:25:09.047Z,0
2022-10-02T07:26:09.637Z,0
2022-10-02T07:27:11.029Z,0
2022-10-02T07:28:11.645Z,0
2022-10-02T07:29:12.240Z,0
2022-10-02T07:30:12.832Z,0
2022-10-02T07:31:13.493Z,0
2022-10-02T07:32:14.074Z,0
2022-10-02T07:33:14.662Z,4
2022-10-02T07:34:15.255Z,4
2022-10-02T07:35:15.844Z,4
2022-10-02T07:36:16.451Z,0
2022-10-02T07:37:17.045Z,0
2022-10-02T07:38:17.680Z,0
2022-10-02T07:39:18.334Z,0
2022-10-02T07:40:18.935Z,0
2022-10-02T07:41:19.532Z,0
2022-10-02T07:42:20.128Z,0
2022-10-02T07:43:20.722Z,0
2022-10-02T07:44:22.169Z,0
2022-10-02T07:45:22.827Z,0
2022-10-02T07:46:23.441Z,0
2022-10-02T07:47:24.088Z,0
2022-10-02T07:48:24.686Z,0
2022-10-02T07:49:25.283Z,0
2022-10-02T07:50:25.904Z,0
2022-10-02T07:51:26.535Z,0
2022-10-02T07:52:27.117Z,0
2022-10-02T07:53:27.720Z,0
2022-10-02T07:54:28.303Z,0
2022-10-02T07:55:28.896Z,0
2022-10-02T07:56:29.484Z,0
2022-10-02T07:57:30.079Z,0
2022-10-02T07:58:30.665Z,0
2022-10-02T07:59:31.256Z,0
2022-10-02T08:00:31.996Z,0
2022-10-02T08:01:32.600Z,0
2022-10-02T08:02:33.245Z,0
2022-10-02T08:03:33.904Z,0
2022-10-02T08:04:37.035Z,0
2022-10-02T08:05:36.064Z,0
2022-10-02T08:06:36.949Z,0
2022-10-02T08:07:37.727Z,4
2022-10-02T08:08:38.317Z,8
2022-10-02T08:09:38.906Z,8
2022-10-02T08:10:39.498Z,8
2022-10-02T08:11:40.085Z,8
2022-10-02T08:12:40.691Z,8
2022-10-02T08:13:41.289Z,8
2022-10-02T08:14:41.890Z,8
2022-10-02T08:15:42.481Z,8
2022-10-02T08:16:43.124Z,4
2022-10-02T08:17:43.739Z,4
2022-10-02T08:18:44.328Z,4
2022-10-02T08:19:44.931Z,4
2022-10-02T08:20:45.530Z,4
2022-10-02T08:21:46.124Z,4
2022-10-02T08:22:46.721Z,4
2022-10-02T08:23:47.319Z,4
2022-10-02T08:24:47.919Z,4
2022-10-02T08:25:48.513Z,4
2022-10-02T08:26:49.112Z,4
2022-10-02T08:27:49.777Z,4
2022-10-02T08:28:50.360Z,4
2022-10-02T08:29:50.958Z,4
2022-10-02T08:30:51.540Z,4
2022-10-02T08:31:52.201Z,12
2022-10-02T08:32:52.841Z,12
2022-10-02T08:33:53.433Z,12
2022-10-02T08:34:54.024Z,8
2022-10-02T08:35:54.612Z,8
2022-10-02T08:36:55.204Z,8
2022-10-02T08:37:55.794Z,12
2022-10-02T08:38:56.388Z,12
2022-10-02T08:39:56.978Z,12
2022-10-02T08:40:58.420Z,12
2022-10-02T08:41:59.013Z,12
2022-10-02T08:42:59.603Z,12
2022-10-02T08:44:00.195Z,12
2022-10-02T08:45:00.785Z,12
2022-10-02T08:46:01.459Z,16
2022-10-02T08:47:02.129Z,12
2022-10-02T08:48:02.719Z,12
2022-10-02T08:49:03.325Z,12
2022-10-02T08:50:03.953Z,12
2022-10-02T08:51:04.539Z,12
2022-10-02T08:52:05.136Z,16
2022-10-02T08:53:05.737Z,16
2022-10-02T08:54:06.336Z,12
2022-10-02T08:55:06.934Z,12
2022-10-02T08:56:07.531Z,12
2022-10-02T08:57:08.278Z,16
2022-10-02T08:58:08.878Z,16
2022-10-02T08:59:09.478Z,16
2022-10-02T09:00:10.075Z,16
2022-10-02T09:01:10.728Z,16
2022-10-02T09:02:11.385Z,12
2022-10-02T09:03:11.998Z,16
2022-10-02T09:04:12.590Z,16
2022-10-02T09:05:13.180Z,16
2022-10-02T09:06:13.774Z,16
2022-10-02T09:07:14.413Z,16
2022-10-02T09:08:15.007Z,16
2022-10-02T09:09:15.599Z,16
2022-10-02T09:10:16.252Z,16
2022-10-02T09:11:16.861Z,16
2022-10-02T09:12:17.454Z,16
2022-10-02T09:13:18.041Z,16
2022-10-02T09:14:18.649Z,16
2022-10-02T09:15:20.096Z,20
2022-10-02T09:16:20.721Z,20
2022-10-02T09:17:21.328Z,16
2022-10-02T09:18:21.925Z,16
2022-10-02T09:19:22.525Z,16
2022-10-02T09:20:23.121Z,16
2022-10-02T09:21:23.720Z,20
2022-10-02T09:22:24.319Z,20
2022-10-02T09:23:25.717Z,20
2022-10-02T09:24:26.366Z,20
2022-10-02T09:25:26.963Z,20
2022-10-02T09:26:27.564Z,20
2022-10-02T09:27:28.159Z,16
2022-10-02T09:28:28.777Z,16
2022-10-02T09:29:29.400Z,20
2022-10-02T09:30:29.992Z,20
2022-10-02T09:31:31.464Z,20
2022-10-02T09:32:32.129Z,20
2022-10-02T09:33:32.711Z,20
2022-10-02T09:34:33.306Z,20
2022-10-02T09:35:33.896Z,20
2022-10-02T09:36:34.869Z,20
2022-10-02T09:37:35.703Z,20
2022-10-02T09:38:39.123Z,24
2022-10-02T09:39:37.885Z,24
2022-10-02T09:40:38.477Z,20
2022-10-02T09:41:39.079Z,20
2022-10-02T09:42:39.676Z,24
2022-10-02T09:43:40.260Z,24
2022-10-02T09:44:40.867Z,24
2022-10-02T09:45:41.550Z,24
2022-10-02T09:46:42.129Z,24
2022-10-02T09:47:42.721Z,24
2022-10-02T09:48:43.312Z,28
2022-10-02T09:49:43.919Z,24
2022-10-02T09:50:44.516Z,24
2022-10-02T09:51:45.164Z,28
2022-10-02T09:52:45.762Z,28
2022-10-02T09:53:46.360Z,24
2022-10-02T09:54:46.959Z,28
2022-10-02T09:55:47.556Z,28
2022-10-02T09:56:48.152Z,28
2022-10-02T09:57:48.788Z,28
2022-10-02T09:58:49.395Z,32
2022-10-02T09:59:49.980Z,28
2022-10-02T10:00:50.640Z,28
2022-10-02T10:01:51.277Z,32
2022-10-02T10:02:51.872Z,28
2022-10-02T10:03:52.470Z,28
2022-10-02T10:05:05.766Z,32
2022-10-02T10:05:54.603Z,32
2022-10-02T10:06:55.209Z,32
2022-10-02T10:07:55.805Z,28
2022-10-02T10:08:57.255Z,36
2022-10-02T10:09:57.841Z,36
2022-10-02T10:10:58.432Z,32
2022-10-02T10:11:59.023Z,32
2022-10-02T10:12:59.614Z,32
2022-10-02T10:14:00.206Z,36
2022-10-02T10:15:00.797Z,32
2022-10-02T10:16:01.463Z,32
2022-10-02T10:17:02.064Z,32
2022-10-02T10:18:02.656Z,36
2022-10-02T10:19:03.257Z,36
2022-10-02T10:20:03.898Z,32
2022-10-02T10:21:04.490Z,32
2022-10-02T10:22:05.080Z,32
2022-10-02T10:23:05.730Z,36
2022-10-02T10:24:06.315Z,32
2022-10-02T10:25:06.920Z,32
2022-10-02T10:26:07.515Z,36
2022-10-02T10:27:08.419Z,36
2022-10-02T10:28:09.213Z,32
2022-10-02T10:29:09.871Z,36
2022-10-02T10:30:10.471Z,36
2022-10-02T10:31:11.116Z,36
2022-10-02T10:32:11.706Z,36
2022-10-02T10:33:12.307Z,36
2022-10-02T10:34:12.903Z,36
2022-10-02T10:35:13.503Z,36
2022-10-02T10:36:14.099Z,36
2022-10-02T10:37:14.700Z,36
2022-10-02T10:38:15.283Z,36
2022-10-02T10:39:15.878Z,36
2022-10-02T10:40:16.470Z,36
2022-10-02T10:41:17.062Z,36
2022-10-02T10:42:17.666Z,36
2022-10-02T10:43:18.264Z,36
2022-10-02T10:44:18.849Z,32
2022-10-02T10:45:20.255Z,36
2022-10-02T10:46:20.885Z,36
2022-10-02T10:47:21.479Z,36
2022-10-02T10:48:22.071Z,36
2022-10-02T10:49:22.662Z,36
2022-10-02T10:50:23.253Z,36
2022-10-02T10:51:23.846Z,32
2022-10-02T10:52:24.438Z,28
2022-10-02T10:53:25.030Z,32
2022-10-02T10:54:25.634Z,32
2022-10-02T10:55:26.232Z,32
2022-10-02T10:56:26.833Z,32
2022-10-02T10:57:27.496Z,28
2022-10-02T10:58:28.130Z,28
2022-10-02T10:59:28.734Z,32
2022-10-02T11:00:29.321Z,32
2022-10-02T11:01:29.974Z,28
2022-10-02T11:02:30.672Z,28
2022-10-02T11:03:31.353Z,24
2022-10-02T11:04:31.952Z,24
2022-10-02T11:05:32.554Z,24
2022-10-02T11:06:33.149Z,24
2022-10-02T11:07:33.747Z,24
2022-10-02T11:08:34.347Z,20
2022-10-02T11:09:35.096Z,20
2022-10-02T11:10:35.693Z,20
2022-10-02T11:11:36.575Z,20
2022-10-02T11:12:37.362Z,20
2022-10-02T11:13:37.960Z,24
2022-10-02T11:14:38.546Z,24
2022-10-02T11:15:39.139Z,20
2022-10-02T11:16:39.767Z,20
2022-10-02T11:17:40.424Z,20
2022-10-02T11:18:41.014Z,20
2022-10-02T11:19:41.615Z,20
2022-10-02T11:20:42.213Z,20
2022-10-02T11:21:42.814Z,16
2022-10-02T11:22:43.413Z,16
2022-10-02T11:23:44.011Z,16
2022-10-02T11:24:44.658Z,16
2022-10-02T11:25:45.254Z,12
2022-10-02T11:26:45.841Z,12
2022-10-02T11:27:46.464Z,12
2022-10-02T11:28:47.103Z,12
2022-10-02T11:29:47.694Z,12
2022-10-02T11:30:48.385Z,12
2022-10-02T11:31:49.032Z,12
2022-10-02T11:32:49.697Z,12
2022-10-02T11:33:51.145Z,12
2022-10-02T11:34:51.728Z,12
2022-10-02T11:35:52.418Z,16
2022-10-02T11:36:53.015Z,12
2022-10-02T11:37:54.452Z,12
2022-10-02T11:38:55.043Z,16
2022-10-02T11:39:55.637Z,12
2022-10-02T11:40:56.223Z,16
2022-10-02T11:41:56.816Z,16
2022-10-02T11:42:57.413Z,16
2022-10-02T11:43:58.013Z,16
2022-10-02T11:44:58.597Z,16
2022-10-02T11:45:59.268Z,16
2022-10-02T11:46:59.860Z,20
2022-10-02T11:48:00.456Z,16
2022-10-02T11:49:01.057Z,16
2022-10-02T11:50:01.663Z,16
2022-10-02T11:51:02.252Z,16
2022-10-02T11:52:02.852Z,16
2022-10-02T11:53:03.447Z,16
2022-10-02T11:54:04.045Z,16
2022-10-02T11:55:04.642Z,16
2022-10-02T11:56:05.241Z,20
2022-10-02T11:57:05.842Z,20
2022-10-02T11:58:06.502Z,20
2022-10-02T11:59:07.100Z,20
2022-10-02T12:00:07.699Z,20
2022-10-02T12:01:08.282Z,20
2022-10-02T12:02:08.989Z,16
2022-10-02T12:03:10.115Z,20
2022-10-02T12:04:10.765Z,20
2022-10-02T12:05:11.363Z,20
2022-10-02T12:06:11.949Z,20
2022-10-02T12:07:12.539Z,16
2022-10-02T12:08:13.131Z,20
2022-10-02T12:09:13.724Z,20
2022-10-02T12:10:15.115Z,20
2022-10-02T12:11:15.707Z,20
2022-10-02T12:12:16.302Z,16
2022-10-02T12:13:16.892Z,20
2022-10-02T12:14:17.481Z,20
2022-10-02T12:15:18.086Z,20
2022-10-02T12:16:18.756Z,16
2022-10-02T12:17:19.354Z,20
2022-10-02T12:18:21.986Z,16
2022-10-02T12:19:21.543Z,16
2022-10-02T12:20:22.140Z,16
2022-10-02T12:21:22.738Z,16
2022-10-02T12:22:23.336Z,20
2022-10-02T12:23:23.920Z,20
2022-10-02T12:24:24.516Z,16
2022-10-02T12:25:25.105Z,16
2022-10-02T12:26:25.709Z,16
2022-10-02T12:27:26.307Z,16
2022-10-02T12:28:26.941Z,16
2022-10-02T12:29:27.517Z,16
2022-10-02T12:30:28.117Z,16
2022-10-02T12:31:28.735Z,16
2022-10-02T12:32:29.335Z,20
2022-10-02T12:33:29.975Z,16
2022-10-02T12:34:30.716Z,16
2022-10-02T12:35:31.359Z,20
2022-10-02T12:36:31.946Z,16
2022-10-02T12:37:32.538Z,20
2022-10-02T12:38:33.180Z,20
2022-10-02T12:39:33.772Z,20
2022-10-02T12:40:34.375Z,20
2022-10-02T12:41:35.305Z,20
2022-10-02T12:42:36.090Z,20
2022-10-02T12:43:36.675Z,20
2022-10-02T12:44:37.266Z,24
2022-10-02T12:45:38.828Z,24
2022-10-02T12:46:39.436Z,24
2022-10-02T12:47:40.037Z,24
2022-10-02T12:48:41.435Z,24
2022-10-02T12:49:42.057Z,28
2022-10-02T12:50:43.497Z,24
2022-10-02T12:51:44.097Z,24
2022-10-02T12:52:45.494Z,28
2022-10-02T12:53:46.089Z,24
2022-10-02T12:54:46.688Z,28
2022-10-02T12:55:47.285Z,28
2022-10-02T12:56:47.881Z,28
2022-10-02T12:57:48.477Z,28
2022-10-02T12:58:49.077Z,32
2022-10-02T12:59:49.661Z,28
2022-10-02T13:00:50.326Z,32
2022-10-02T13:01:50.955Z,28
2022-10-02T13:03:01.951Z,32
2022-10-02T13:03:53.108Z,32
2022-10-02T13:04:53.700Z,32
2022-10-02T13:05:54.291Z,32
2022-10-02T13:06:54.884Z,36
2022-10-02T13:07:55.475Z,32
2022-10-02T13:08:56.067Z,36
2022-10-02T13:09:56.660Z,32
2022-10-02T13:10:57.251Z,36
2022-10-02T13:11:57.843Z,36
2022-10-02T13:12:58.436Z,32
2022-10-02T13:13:59.025Z,36
2022-10-02T13:14:59.621Z,36
2022-10-02T13:16:00.226Z,36
2022-10-02T13:17:00.824Z,40
2022-10-02T13:18:01.409Z,40
2022-10-02T13:19:02.017Z,36
2022-10-02T13:20:02.616Z,40
2022-10-02T13:21:03.218Z,40
2022-10-02T13:22:03.811Z,40
2022-10-02T13:23:04.413Z,40
2022-10-02T13:24:04.994Z,40
2022-10-02T13:25:05.586Z,40
2022-10-02T13:26:06.181Z,40
2022-10-02T13:27:06.784Z,40
2022-10-02T13:28:07.459Z,40
2022-10-02T13:29:08.052Z,44
2022-10-02T13:30:08.653Z,40
2022-10-02T13:31:09.281Z,40
2022-10-02T13:32:09.868Z,40
2022-10-02T13:33:10.466Z,40
2022-10-02T13:34:11.066Z,40
2022-10-02T13:35:11.666Z,40
2022-10-02T13:36:12.251Z,44
2022-10-02T13:37:12.892Z,44
2022-10-02T13:38:14.334Z,44
2022-10-02T13:39:14.984Z,44
2022-10-02T13:40:15.576Z,44
2022-10-02T13:41:16.181Z,44
2022-10-02T13:42:16.831Z,44
2022-10-02T13:43:17.430Z,44
2022-10-02T13:44:18.017Z,44
2022-10-02T13:45:18.607Z,40
2022-10-02T13:46:20.077Z,40
2022-10-02T13:47:20.750Z,40
2022-10-02T13:48:21.345Z,40
2022-10-02T13:49:21.935Z,44
2022-10-02T13:50:22.528Z,44
2022-10-02T13:51:23.120Z,44
2022-10-02T13:52:23.712Z,44
2022-10-02T13:53:24.316Z,40
2022-10-02T13:54:24.903Z,40
2022-10-02T13:55:25.497Z,44
2022-10-02T13:56:26.106Z,44
2022-10-02T13:57:26.698Z,44
2022-10-02T13:58:27.300Z,44
2022-10-02T13:59:27.897Z,44
2022-10-02T14:00:29.296Z,44
2022-10-02T14:01:30.812Z,44
2022-10-02T14:02:31.489Z,44
2022-10-02T14:03:32.128Z,44
2022-10-02T14:04:32.722Z,44
2022-10-02T14:05:33.319Z,44
2022-10-02T14:06:33.918Z,44
2022-10-02T14:07:34.517Z,44
2022-10-02T14:08:35.118Z,44
2022-10-02T14:09:35.713Z,44
2022-10-02T14:10:36.300Z,44
2022-10-02T14:11:37.247Z,44
2022-10-02T14:12:37.971Z,44
2022-10-02T14:13:38.565Z,44
2022-10-02T14:14:39.157Z,44
2022-10-02T14:15:39.749Z,44
2022-10-02T14:16:40.373Z,48
2022-10-02T14:17:40.960Z,44
2022-10-02T14:18:41.563Z,48
2022-10-02T14:19:42.203Z,48
2022-10-02T14:20:42.798Z,48
2022-10-02T14:21:43.391Z,48
2022-10-02T14:22:43.983Z,48
2022-10-02T14:23:44.575Z,48
2022-10-02T14:24:45.180Z,48
2022-10-02T14:25:45.781Z,44
2022-10-02T14:26:46.381Z,44
2022-10-02T14:27:47.059Z,44
2022-10-02T14:28:47.635Z,44
2022-10-02T14:29:48.296Z,44
2022-10-02T14:30:48.896Z,48
2022-10-02T14:31:49.541Z,48
2022-10-02T14:32:50.178Z,48
2022-10-02T14:33:50.767Z,48
2022-10-02T14:34:51.357Z,48
2022-10-02T14:35:51.962Z,48
2022-10-02T14:36:52.561Z,44
2022-10-02T14:37:53.160Z,44
2022-10-02T14:38:53.809Z,44
2022-10-02T14:39:54.458Z,44
2022-10-02T14:40:55.047Z,44
2022-10-02T14:41:55.635Z,44
2022-10-02T14:42:56.230Z,48